Terminal Aerodrome Forecast
Issued by NWS Charleston, WV

Current Version | Previous Version | Graphics & Text | Print | Product List | Glossary On
Versions: 1 2 3 4 5 6 7 8 9 10 11 12 13 14 15 16 17 18 19 20 21 22 23
000
FTUS41 KRLX 141100
TAFHTS
TAF
KHTS 141125Z 1412/1512 19011G16KT P6SM BKN250
     FM141800 21014G21KT P6SM SHRA OVC040
     FM142100 21013G20KT P6SM OVC040
     FM142200 20012G18KT P6SM SHRA OVC040
     FM150100 20008KT P6SM SHRA OVC030
     FM150500 20008KT P6SM SHRA OVC015
     FM150800 25011G17KT P6SM SHRA OVC010
     FM151000 29013G19KT P6SM SHRA OVC015=

USA.gov is the U.S. government's official web portal to all federal, state and local government web resources and services.